createdAt,value
2023-01-29T00:02:16.393Z,26.60
2023-01-29T00:04:43.423Z,26.13
2023-01-29T00:07:10.746Z,26.47
2023-01-29T00:09:38.354Z,26.03
2023-01-29T00:12:05.824Z,27.20
2023-01-29T00:14:33.013Z,26.30
2023-01-29T00:17:00.722Z,25.63
2023-01-29T00:19:28.051Z,29.00
2023-01-29T00:21:55.365Z,27.70
2023-01-29T00:24:22.906Z,26.90
2023-01-29T00:26:50.321Z,26.43
2023-01-29T00:29:17.948Z,27.03
2023-01-29T00:31:46.041Z,27.40
2023-01-29T00:34:13.491Z,27.03
2023-01-29T00:36:40.764Z,27.23
2023-01-29T00:39:10.874Z,27.20
2023-01-29T00:41:56.934Z,27.03
2023-01-29T00:44:42.917Z,27.80
2023-01-29T00:47:42.577Z,27.07
2023-01-29T00:50:12.713Z,29.10
2023-01-29T00:52:43.636Z,28.63
2023-01-29T00:55:12.258Z,27.63
2023-01-29T00:57:39.976Z,28.00
2023-01-29T01:00:11.823Z,28.70
2023-01-29T01:02:57.687Z,31.23
2023-01-29T01:05:25.412Z,31.13
2023-01-29T01:07:56.227Z,30.10
2023-01-29T01:10:29.493Z,30.77
2023-01-29T01:13:06.299Z,31.20
2023-01-29T01:15:39.406Z,31.67
2023-01-29T01:18:06.779Z,32.80
2023-01-29T01:20:35.796Z,31.97
2023-01-29T01:23:03.539Z,34.80
2023-01-29T01:25:31.073Z,33.50
2023-01-29T01:28:03.019Z,34.10
2023-01-29T01:30:30.172Z,34.27
2023-01-29T01:32:57.735Z,32.90
2023-01-29T01:35:24.965Z,32.87
2023-01-29T01:37:52.098Z,34.47
2023-01-29T01:40:24.842Z,33.47
2023-01-29T01:42:56.758Z,33.60
2023-01-29T01:45:34.685Z,32.70
2023-01-29T01:48:22.499Z,32.37
2023-01-29T01:51:03.530Z,31.70
2023-01-29T01:53:34.381Z,32.60
2023-01-29T01:56:19.724Z,31.33
2023-01-29T01:58:55.580Z,32.57
2023-01-29T02:01:29.058Z,33.57
2023-01-29T02:04:26.216Z,33.30
2023-01-29T02:07:14.826Z,33.50
2023-01-29T02:10:07.178Z,33.43
2023-01-29T02:12:36.409Z,31.83
2023-01-29T02:15:05.067Z,33.87
2023-01-29T02:17:33.024Z,34.07
2023-01-29T02:20:08.996Z,35.23
2023-01-29T02:23:14.965Z,33.43
2023-01-29T02:26:20.297Z,34.00
2023-01-29T02:29:22.271Z,34.77
2023-01-29T02:32:24.099Z,34.73
2023-01-29T02:35:30.141Z,34.73
2023-01-29T02:38:52.988Z,32.73
2023-01-29T02:41:27.241Z,32.87
2023-01-29T02:44:24.114Z,33.63
2023-01-29T02:47:21.848Z,33.90
2023-01-29T02:50:11.232Z,31.93
2023-01-29T02:52:44.640Z,34.03
2023-01-29T02:55:22.915Z,33.90
2023-01-29T02:57:56.261Z,33.23
2023-01-29T03:00:32.987Z,35.60
2023-01-29T03:03:42.518Z,32.00
2023-01-29T03:06:37.584Z,32.33
2023-01-29T03:09:22.883Z,31.60
2023-01-29T03:11:58.796Z,31.43
2023-01-29T03:14:56.323Z,31.90
2023-01-29T03:17:32.660Z,31.50
2023-01-29T03:20:01.572Z,32.37
2023-01-29T03:22:30.113Z,32.13
2023-01-29T03:25:21.788Z,32.77
2023-01-29T03:28:15.676Z,32.70
2023-01-29T03:31:20.379Z,31.40
2023-01-29T03:34:05.632Z,31.40
2023-01-29T03:37:00.078Z,31.10
2023-01-29T03:39:29.387Z,31.83
2023-01-29T03:42:21.460Z,31.70
2023-01-29T03:45:37.864Z,33.27
2023-01-29T03:48:29.277Z,32.40
2023-01-29T03:51:32.796Z,31.67
2023-01-29T03:54:21.288Z,31.83
2023-01-29T03:57:28.667Z,31.00
2023-01-29T04:00:47.298Z,31.63
2023-01-29T04:03:34.218Z,29.77
2023-01-29T04:06:13.736Z,30.40
2023-01-29T04:09:13.525Z,29.83
2023-01-29T04:11:49.677Z,27.77
2023-01-29T04:14:17.708Z,29.53
2023-01-29T04:16:56.318Z,31.07
2023-01-29T04:19:23.987Z,29.60
2023-01-29T04:22:13.983Z,31.13
2023-01-29T04:24:42.479Z,29.70
2023-01-29T04:27:33.813Z,29.03
2023-01-29T04:30:16.336Z,29.10
2023-01-29T04:33:40.189Z,29.90
2023-01-29T04:36:07.260Z,29.00
2023-01-29T04:38:47.810Z,27.97
2023-01-29T04:41:30.671Z,27.37
2023-01-29T04:44:50.814Z,28.23
2023-01-29T04:48:08.190Z,27.40
2023-01-29T04:50:48.654Z,26.50
2023-01-29T04:53:43.526Z,27.13
2023-01-29T04:56:32.562Z,28.03
2023-01-29T04:59:14.712Z,26.03
2023-01-29T05:01:41.968Z,25.67
2023-01-29T05:04:14.620Z,26.33
2023-01-29T05:06:42.670Z,27.80
2023-01-29T05:09:12.598Z,26.30
2023-01-29T05:11:40.507Z,26.17
2023-01-29T05:14:12.482Z,26.97
2023-01-29T05:16:50.542Z,27.63
2023-01-29T05:19:17.932Z,26.00
2023-01-29T05:21:49.572Z,27.20
2023-01-29T05:24:22.379Z,26.20
2023-01-29T05:27:10.439Z,24.97
2023-01-29T05:29:39.029Z,24.77
2023-01-29T05:32:06.241Z,28.20
2023-01-29T05:34:34.335Z,26.73
2023-01-29T05:37:01.636Z,25.90
2023-01-29T05:39:28.823Z,27.60
2023-01-29T05:41:56.171Z,25.43
2023-01-29T05:44:23.389Z,24.53
2023-01-29T05:46:51.142Z,24.93
2023-01-29T05:49:20.675Z,25.13
2023-01-29T05:51:47.781Z,25.87
2023-01-29T05:54:15.394Z,25.93
2023-01-29T05:56:42.578Z,26.23
2023-01-29T05:59:09.580Z,25.53
2023-01-29T06:01:36.823Z,24.20
2023-01-29T06:04:04.128Z,23.93
2023-01-29T06:06:31.443Z,24.70
2023-01-29T06:08:58.522Z,26.33
2023-01-29T06:11:26.007Z,24.93
2023-01-29T06:13:53.208Z,25.20
2023-01-29T06:16:20.498Z,26.03
2023-01-29T06:18:47.848Z,23.43
2023-01-29T06:21:14.979Z,24.93
2023-01-29T06:23:42.122Z,25.17
2023-01-29T06:26:13.372Z,24.93
2023-01-29T06:28:41.047Z,26.30
2023-01-29T06:31:30.397Z,25.53
2023-01-29T06:33:56.213Z,24.47
2023-01-29T06:36:23.279Z,24.93
2023-01-29T06:38:50.548Z,24.37
2023-01-29T06:41:19.662Z,25.93
2023-01-29T06:43:47.936Z,24.63
2023-01-29T06:46:15.313Z,25.63
2023-01-29T06:48:42.424Z,26.60
2023-01-29T06:51:11.381Z,26.13
2023-01-29T06:53:39.390Z,26.83
2023-01-29T06:56:08.116Z,26.30
2023-01-29T06:58:39.110Z,25.80
2023-01-29T07:01:15.490Z,25.67
2023-01-29T07:03:52.699Z,27.10
2023-01-29T07:06:20.268Z,25.30
2023-01-29T07:08:47.507Z,26.87
2023-01-29T07:11:14.637Z,27.00
2023-01-29T07:13:41.775Z,26.27
2023-01-29T07:16:09.872Z,25.10
2023-01-29T07:18:37.497Z,26.47
2023-01-29T07:21:07.188Z,26.10
2023-01-29T07:23:35.057Z,25.77
2023-01-29T07:26:04.662Z,26.47
2023-01-29T07:28:32.133Z,25.03
2023-01-29T07:30:59.728Z,24.97
2023-01-29T07:33:26.908Z,25.90
2023-01-29T07:35:54.141Z,25.83
2023-01-29T07:38:21.687Z,25.93
2023-01-29T07:40:49.019Z,25.47
2023-01-29T07:43:16.883Z,28.00
2023-01-29T07:45:44.047Z,26.17
2023-01-29T07:48:13.406Z,27.57
2023-01-29T07:50:41.659Z,26.27
2023-01-29T07:53:15.315Z,25.20
2023-01-29T07:55:45.366Z,25.47
2023-01-29T07:58:12.908Z,22.67
2023-01-29T08:00:40.352Z,24.77
2023-01-29T08:03:22.471Z,25.20
2023-01-29T08:05:49.535Z,24.07
2023-01-29T08:08:16.667Z,23.20
2023-01-29T08:10:43.776Z,24.53
2023-01-29T08:13:10.868Z,24.43
2023-01-29T08:15:39.299Z,23.80
2023-01-29T08:18:06.860Z,24.07
2023-01-29T08:20:34.350Z,23.83
2023-01-29T08:23:07.543Z,24.53
2023-01-29T08:25:36.431Z,23.97
2023-01-29T08:28:04.378Z,24.90
2023-01-29T08:30:34.311Z,24.90
2023-01-29T08:33:03.625Z,23.57
2023-01-29T08:35:30.789Z,23.77
2023-01-29T08:38:01.365Z,25.10
2023-01-29T08:40:34.042Z,26.37
2023-01-29T08:43:06.312Z,24.07
2023-01-29T08:45:41.088Z,24.80
2023-01-29T08:48:09.604Z,23.27
2023-01-29T08:50:37.121Z,24.20
2023-01-29T08:53:08.045Z,24.37
2023-01-29T08:55:40.478Z,24.03
2023-01-29T08:58:10.539Z,24.67
2023-01-29T09:00:38.715Z,23.50
2023-01-29T09:03:07.916Z,25.37
2023-01-29T09:05:39.818Z,23.53
2023-01-29T09:08:08.692Z,24.67
2023-01-29T09:10:36.163Z,23.80
2023-01-29T09:13:04.018Z,25.80
2023-01-29T09:15:31.257Z,24.77
2023-01-29T09:17:58.410Z,24.30
2023-01-29T09:20:25.561Z,23.47
2023-01-29T09:22:53.737Z,24.67
2023-01-29T09:25:20.845Z,23.67
2023-01-29T09:27:47.884Z,22.77
2023-01-29T09:30:15.388Z,24.47
2023-01-29T09:32:53.644Z,22.77
2023-01-29T09:35:23.715Z,24.60
2023-01-29T09:37:52.368Z,24.13
2023-01-29T09:40:45.133Z,23.97
2023-01-29T09:43:26.420Z,23.73
2023-01-29T09:46:15.891Z,23.83
2023-01-29T09:48:45.961Z,22.90
2023-01-29T09:51:29.335Z,23.00
2023-01-29T09:54:27.070Z,23.07
2023-01-29T09:56:57.075Z,21.87
2023-01-29T09:59:29.494Z,22.07
2023-01-29T10:02:42.217Z,20.80
2023-01-29T10:05:43.285Z,21.47
2023-01-29T10:08:53.618Z,21.37
2023-01-29T10:11:52.474Z,21.07
2023-01-29T10:14:55.313Z,20.30
2023-01-29T10:18:00.606Z,19.73
2023-01-29T10:21:04.697Z,20.03
2023-01-29T10:23:41.313Z,22.50
2023-01-29T10:26:13.013Z,21.00
2023-01-29T10:28:46.595Z,22.30
2023-01-29T10:31:13.652Z,20.43
2023-01-29T10:34:01.414Z,21.13
2023-01-29T10:36:43.799Z,21.83
2023-01-29T10:39:26.037Z,20.17
2023-01-29T10:42:01.682Z,20.10
2023-01-29T10:44:52.863Z,20.63
2023-01-29T10:47:41.776Z,21.40
2023-01-29T10:50:39.553Z,21.03
2023-01-29T10:53:27.477Z,21.03
2023-01-29T10:56:33.435Z,20.23
2023-01-29T10:59:10.669Z,21.30
2023-01-29T11:01:38.094Z,22.13
2023-01-29T11:04:11.826Z,21.87
2023-01-29T11:06:39.183Z,20.47
2023-01-29T11:09:49.679Z,21.27
2023-01-29T11:12:26.800Z,21.50
2023-01-29T11:15:05.679Z,22.30
2023-01-29T11:17:33.177Z,21.17
2023-01-29T11:20:00.280Z,24.17
2023-01-29T11:22:30.376Z,21.63
2023-01-29T11:25:32.757Z,21.13
2023-01-29T11:28:02.821Z,21.17
2023-01-29T11:30:38.271Z,22.17
2023-01-29T11:33:25.999Z,22.63
2023-01-29T11:35:53.232Z,20.27
2023-01-29T11:38:27.119Z,21.87
2023-01-29T11:41:07.466Z,22.20
2023-01-29T11:43:34.512Z,21.07
2023-01-29T11:46:21.823Z,21.47
2023-01-29T11:48:59.122Z,21.93
2023-01-29T11:51:33.532Z,21.00
2023-01-29T11:54:04.427Z,22.87
2023-01-29T11:56:42.640Z,22.03
2023-01-29T11:59:42.785Z,20.70
2023-01-29T12:02:45.498Z,20.73
2023-01-29T12:05:24.287Z,21.10
2023-01-29T12:07:55.672Z,21.53
2023-01-29T12:10:45.132Z,21.70
2023-01-29T12:13:20.068Z,20.57
2023-01-29T12:15:48.808Z,19.03
2023-01-29T12:18:41.706Z,20.43
2023-01-29T12:21:33.483Z,19.27
2023-01-29T12:24:35.802Z,20.07
2023-01-29T12:27:31.719Z,19.63
2023-01-29T12:30:26.159Z,20.20
2023-01-29T12:33:23.952Z,19.93
2023-01-29T12:36:04.249Z,18.70
2023-01-29T12:38:31.593Z,19.30
2023-01-29T12:41:21.683Z,19.00
2023-01-29T12:43:56.122Z,19.97
2023-01-29T12:46:50.738Z,20.63
2023-01-29T12:49:27.507Z,19.83
2023-01-29T12:52:07.428Z,19.17
2023-01-29T12:54:46.085Z,20.97
2023-01-29T12:57:36.497Z,21.03
2023-01-29T13:00:12.127Z,19.33
2023-01-29T13:03:03.614Z,19.23
2023-01-29T13:06:09.683Z,19.27
2023-01-29T13:08:45.687Z,20.07
2023-01-29T13:11:46.813Z,19.80
2023-01-29T13:14:43.007Z,19.67
2023-01-29T13:17:34.396Z,18.43
2023-01-29T13:20:16.607Z,19.30
2023-01-29T13:22:47.152Z,19.90
2023-01-29T13:25:20.075Z,19.20
2023-01-29T13:27:48.823Z,18.40
2023-01-29T13:30:28.502Z,19.37
2023-01-29T13:33:09.636Z,18.77
2023-01-29T13:35:43.086Z,19.60
2023-01-29T13:38:29.546Z,20.40
2023-01-29T13:41:08.691Z,20.97
2023-01-29T13:43:43.309Z,20.13
2023-01-29T13:46:21.446Z,20.17
2023-01-29T13:48:52.455Z,20.30
2023-01-29T13:51:23.147Z,18.87
2023-01-29T13:54:01.065Z,19.80
2023-01-29T13:56:34.123Z,20.90
2023-01-29T13:59:06.230Z,19.50
2023-01-29T14:01:48.367Z,19.47
2023-01-29T14:04:31.048Z,19.83
2023-01-29T14:07:03.344Z,19.60
2023-01-29T14:09:39.671Z,19.57
2023-01-29T14:12:22.014Z,19.47
2023-01-29T14:14:49.193Z,20.17
2023-01-29T14:17:21.032Z,21.07
2023-01-29T14:19:55.180Z,20.70
2023-01-29T14:22:26.751Z,19.90
2023-01-29T14:24:59.679Z,20.47
2023-01-29T14:27:26.934Z,20.10
2023-01-29T14:30:09.935Z,20.83
2023-01-29T14:32:40.614Z,20.23
2023-01-29T14:35:20.659Z,19.97
2023-01-29T14:38:14.752Z,20.67
2023-01-29T14:40:44.314Z,20.43
2023-01-29T14:43:20.938Z,19.70
2023-01-29T14:45:49.725Z,20.07
2023-01-29T14:48:37.108Z,20.70
2023-01-29T14:51:11.461Z,21.07
2023-01-29T14:54:14.048Z,19.80
2023-01-29T14:57:02.435Z,20.67
2023-01-29T14:59:46.856Z,20.03
2023-01-29T15:02:26.988Z,19.97
2023-01-29T15:05:00.635Z,20.63
2023-01-29T15:07:46.411Z,21.13
2023-01-29T15:10:27.297Z,20.63
2023-01-29T15:13:18.787Z,19.83
2023-01-29T15:15:57.842Z,19.53
2023-01-29T15:18:42.612Z,20.77
2023-01-29T15:21:18.950Z,20.73
2023-01-29T15:23:50.348Z,20.40
2023-01-29T15:26:25.960Z,20.80
2023-01-29T15:29:04.573Z,21.47
2023-01-29T15:31:32.427Z,21.03
2023-01-29T15:34:06.455Z,20.20
2023-01-29T15:36:34.166Z,20.63
2023-01-29T15:39:16.631Z,19.50
2023-01-29T15:41:45.818Z,20.20
2023-01-29T15:44:23.790Z,19.50
2023-01-29T15:46:59.275Z,20.27
2023-01-29T15:49:37.703Z,20.83
2023-01-29T15:52:19.325Z,19.57
2023-01-29T15:54:47.157Z,18.47
2023-01-29T15:57:30.712Z,18.53
2023-01-29T15:59:58.726Z,19.70
2023-01-29T16:02:37.506Z,18.43
2023-01-29T16:05:30.361Z,19.17
2023-01-29T16:08:00.039Z,16.80
2023-01-29T16:10:30.995Z,17.77
2023-01-29T16:12:58.959Z,17.73
2023-01-29T16:16:01.805Z,18.00
2023-01-29T16:18:35.888Z,18.97
2023-01-29T16:21:15.198Z,19.53
2023-01-29T16:23:53.773Z,18.03
2023-01-29T16:26:35.166Z,18.90
2023-01-29T16:29:12.055Z,18.37
2023-01-29T16:31:40.152Z,19.70
2023-01-29T16:34:29.752Z,18.43
2023-01-29T16:36:57.811Z,19.20
2023-01-29T16:39:38.530Z,18.83
2023-01-29T16:42:20.072Z,19.40
2023-01-29T16:45:01.169Z,18.57
2023-01-29T16:47:29.736Z,19.10
2023-01-29T16:50:46.236Z,19.00
2023-01-29T16:53:24.571Z,18.37
2023-01-29T16:55:54.490Z,18.87
2023-01-29T16:58:28.181Z,18.97
2023-01-29T17:01:11.339Z,20.90
2023-01-29T17:03:40.830Z,19.43
2023-01-29T17:06:24.708Z,19.13
2023-01-29T17:08:52.628Z,18.40
2023-01-29T17:11:34.365Z,19.13
2023-01-29T17:14:02.078Z,19.77
2023-01-29T17:16:37.689Z,18.10
2023-01-29T17:19:18.699Z,19.90
2023-01-29T17:21:47.141Z,19.27
2023-01-29T17:24:14.217Z,18.70
2023-01-29T17:26:42.062Z,17.07
2023-01-29T17:29:18.179Z,17.73
2023-01-29T17:31:45.439Z,17.80
2023-01-29T17:34:15.131Z,18.33
2023-01-29T17:36:46.096Z,18.20
2023-01-29T17:39:24.435Z,17.07
2023-01-29T17:41:58.943Z,17.13
2023-01-29T17:44:26.714Z,16.37
2023-01-29T17:46:54.290Z,17.30
2023-01-29T17:49:28.605Z,17.27
2023-01-29T17:51:57.034Z,17.90
2023-01-29T17:54:25.655Z,17.30
2023-01-29T17:56:53.949Z,17.83
2023-01-29T17:59:31.660Z,17.53
2023-01-29T18:01:58.884Z,16.67
2023-01-29T18:04:26.536Z,17.27
2023-01-29T18:06:54.440Z,17.50
2023-01-29T18:09:22.666Z,16.70
2023-01-29T18:11:51.136Z,16.40
2023-01-29T18:14:18.641Z,17.73
2023-01-29T18:16:46.915Z,18.63
2023-01-29T18:19:27.502Z,17.53
2023-01-29T18:21:54.973Z,18.10
2023-01-29T18:24:22.222Z,18.47
2023-01-29T18:26:51.220Z,18.43
2023-01-29T18:29:18.604Z,18.77
2023-01-29T18:31:49.465Z,19.00
2023-01-29T18:34:16.814Z,20.07
2023-01-29T18:36:47.043Z,20.40
2023-01-29T18:39:15.631Z,20.30
2023-01-29T18:41:43.126Z,19.57
2023-01-29T18:44:11.169Z,20.03
2023-01-29T18:46:38.487Z,19.63
2023-01-29T18:49:05.747Z,19.87
2023-01-29T18:51:33.386Z,20.33
2023-01-29T18:54:01.131Z,19.37
2023-01-29T18:56:28.461Z,19.57
2023-01-29T18:58:56.307Z,20.00
2023-01-29T19:01:24.163Z,19.77
2023-01-29T19:03:52.108Z,21.10
2023-01-29T19:06:19.521Z,20.67
2023-01-29T19:08:47.481Z,22.27
2023-01-29T19:11:14.789Z,22.70
2023-01-29T19:13:42.905Z,19.90
2023-01-29T19:16:12.075Z,20.87
2023-01-29T19:18:39.365Z,21.83
2023-01-29T19:21:10.128Z,20.57
2023-01-29T19:23:37.937Z,22.00
2023-01-29T19:26:05.565Z,21.80
2023-01-29T19:28:36.433Z,22.83
2023-01-29T19:31:03.777Z,21.57
2023-01-29T19:33:30.984Z,20.30
2023-01-29T19:35:59.713Z,21.60
2023-01-29T19:38:27.813Z,20.50
2023-01-29T19:40:55.491Z,20.53
2023-01-29T19:43:22.845Z,18.73
2023-01-29T19:45:56.580Z,20.10
2023-01-29T19:48:23.967Z,22.67
2023-01-29T19:50:56.198Z,21.67
2023-01-29T19:53:24.197Z,19.73
2023-01-29T19:56:20.855Z,20.70
2023-01-29T19:58:48.238Z,20.27
2023-01-29T20:01:19.125Z,21.03
2023-01-29T20:03:48.654Z,19.13
2023-01-29T20:06:19.785Z,20.70
2023-01-29T20:08:47.238Z,20.53
2023-01-29T20:11:16.756Z,20.20
2023-01-29T20:13:46.273Z,20.23
2023-01-29T20:16:13.620Z,20.80
2023-01-29T20:18:40.682Z,20.07
2023-01-29T20:21:11.721Z,19.00
2023-01-29T20:23:39.967Z,21.27
2023-01-29T20:26:15.600Z,20.73
2023-01-29T20:28:46.274Z,18.93
2023-01-29T20:31:13.384Z,18.87
2023-01-29T20:33:41.403Z,20.47
2023-01-29T20:36:12.653Z,18.50
2023-01-29T20:38:40.001Z,20.63
2023-01-29T20:41:14.696Z,20.20
2023-01-29T20:43:43.719Z,20.43
2023-01-29T20:46:11.725Z,19.87
2023-01-29T20:48:39.532Z,21.67
2023-01-29T20:51:15.573Z,19.47
2023-01-29T20:53:45.785Z,19.70
2023-01-29T20:56:15.032Z,18.30
2023-01-29T20:58:44.164Z,18.57
2023-01-29T21:01:15.873Z,19.83
2023-01-29T21:03:43.583Z,18.73
2023-01-29T21:06:11.907Z,18.87
2023-01-29T21:08:40.563Z,19.13
2023-01-29T21:11:09.457Z,18.97
2023-01-29T21:13:38.099Z,19.33
2023-01-29T21:16:06.067Z,20.83
2023-01-29T21:18:34.066Z,20.07
2023-01-29T21:21:01.270Z,20.00
2023-01-29T21:23:28.493Z,20.83
2023-01-29T21:26:05.447Z,20.30
2023-01-29T21:28:33.362Z,21.37
2023-01-29T21:31:14.464Z,20.87
2023-01-29T21:33:41.723Z,20.17
2023-01-29T21:36:10.210Z,20.57
2023-01-29T21:38:38.189Z,21.20
2023-01-29T21:41:09.595Z,19.87
2023-01-29T21:43:38.415Z,21.63
2023-01-29T21:46:11.966Z,21.93
2023-01-29T21:48:40.490Z,22.53
2023-01-29T21:51:08.271Z,23.93
2023-01-29T21:53:36.711Z,22.17
2023-01-29T21:56:05.904Z,22.93
2023-01-29T21:58:33.648Z,21.60
2023-01-29T22:01:18.505Z,21.93
2023-01-29T22:03:47.896Z,22.53
2023-01-29T22:06:15.845Z,22.80
2023-01-29T22:08:43.375Z,23.30
2023-01-29T22:11:11.393Z,22.63
2023-01-29T22:13:38.694Z,22.27
2023-01-29T22:16:06.488Z,20.60
2023-01-29T22:18:34.335Z,23.47
2023-01-29T22:21:04.507Z,22.23
2023-01-29T22:23:32.486Z,23.37
2023-01-29T22:26:07.559Z,23.27
2023-01-29T22:28:35.466Z,22.40
2023-01-29T22:31:04.692Z,22.10
2023-01-29T22:33:33.498Z,21.70
2023-01-29T22:36:01.333Z,22.40
2023-01-29T22:38:29.078Z,23.10
2023-01-29T22:40:59.297Z,21.73
2023-01-29T22:43:26.363Z,22.73
2023-01-29T22:45:53.576Z,22.17
2023-01-29T22:48:22.276Z,23.13
2023-01-29T22:51:10.501Z,23.67
2023-01-29T22:53:59.604Z,23.63
2023-01-29T22:56:30.612Z,23.30
2023-01-29T22:59:00.242Z,24.03
2023-01-29T23:01:31.450Z,23.20
2023-01-29T23:03:58.716Z,24.30
2023-01-29T23:06:26.339Z,23.30
2023-01-29T23:08:53.695Z,22.53
2023-01-29T23:11:23.507Z,23.87
2023-01-29T23:13:54.533Z,21.17
2023-01-29T23:16:27.771Z,22.57
2023-01-29T23:18:56.216Z,23.63
2023-01-29T23:21:25.235Z,23.53
2023-01-29T23:23:54.299Z,21.63
2023-01-29T23:26:40.694Z,21.77
2023-01-29T23:29:07.770Z,22.40
2023-01-29T23:31:35.321Z,22.60
2023-01-29T23:34:02.833Z,21.73
2023-01-29T23:36:29.889Z,21.57
2023-01-29T23:38:57.088Z,20.73
2023-01-29T23:41:24.290Z,21.17
2023-01-29T23:43:52.856Z,22.97
2023-01-29T23:46:20.452Z,22.93
2023-01-29T23:48:47.587Z,21.57
2023-01-29T23:51:14.750Z,23.23
2023-01-29T23:53:41.953Z,21.80
2023-01-29T23:56:10.525Z,22.87
2023-01-29T23:58:37.718Z,21.67
